20:41
Airports
Links
Donate
Help keep this website running!
PayPal
Bitcoin
METAR
LICZ 221955Z 04004KT 9999 FEW025 SCT060 20/15 Q1021 RMK SCT VIS MIN 9999 WIND THR28 04003KT WIND THR10 04003KT A3018 BLU
Current Weather Conditions at LICZ
VFR 19:55:00 22-09-17
Altimeter:30.15 hg
Temp:20.0°c 68°f
Dew point:15.0°c 59°f
Wind:4 knots, 4.6 mph, 2 m/s, from 40°
Visibility:6.21 statute miles
6000(SCT) Scattered
2500(FEW) A few
Past METAR reports
VFR 18:55:00 22-09-17
Altimeter:30.15 hg
Temp:21.0°c 70°f
Dew point:15.0°c 59°f
Wind:5 knots, 5.8 mph, 3 m/s, from 60°
Visibility:6.21 statute miles
6000(SCT) Scattered
LICZ 221855Z 06005KT 9999 SCT060 21/15 Q1021 RMK SCT VIS MIN 9999 WIND THR28 06005KT WIND THR10 06007KT A3017 BLU
VFR 17:55:00 22-09-17
Altimeter:30.15 hg
Temp:21.0°c 70°f
Dew point:14.0°c 57°f
Wind:8 knots, 9.2 mph, 4 m/s, from 70°
Visibility:6.21 statute miles
6000(SCT) Scattered
LICZ 221755Z 07008KT 9999 SCT060 21/14 Q1021 RMK SCT VIS MIN 9999 WIND THR28 07007KT WIND THR10 07008KT A3016 BLU
VFR 16:55:00 22-09-17
Altimeter:30.12 hg
Temp:22.0°c 72°f
Dew point:13.0°c 55°f
Wind:11 knots, 12.7 mph, 6 m/s, from 70°
Visibility:6.21 statute miles
3200(FEW) A few
LICZ 221655Z 07011KT 9999 FEW032 22/13 Q1020 RMK FEW VIS MIN 9999 WIND THR28 07009KT WIND THR10 07011KT A3015 BLU
VFR 15:55:00 22-09-17
Altimeter:30.12 hg
Temp:24.0°c 75°f
Dew point:12.0°c 54°f
Wind:13 knots, 15 mph, 7 m/s, from 80°
Visibility:6.21 statute miles
3000(FEW) A few
LICZ 221555Z 08013KT 9999 FEW030 24/12 Q1020 RMK FEW VIS MIN 9999 WIND THR28 08012KT WIND THR10 08013KT A3014 BLU
VFR 14:55:00 22-09-17
Altimeter:30.12 hg
Temp:24.0°c 75°f
Dew point:10.0°c 50°f
Wind:14 knots, 16.1 mph, 7 m/s, from 90°
Visibility:6.21 statute miles
2500(FEW) A few
LICZ 221455Z 09014KT 9999 FEW025 24/10 Q1020 RMK FEW VIS MIN 9999 WIND THR28 09013KT WIND THR10 09013KT A3014 BLU
TAF
TAF LICZ 222000Z 2221/2306 06005KT 9999 SCT020 SCT060
Forecast at LICZ
21:00 22-09-17 to 06:00 23-09-17
Wind:5 Knots from 60°
Visibility:6.21 statute miles
2000SCT Scattered
6000SCT Scattered